sensor_id;sensor_type;location;lat;lon;timestamp;temperature;humidity
16532;DHT22;66872;63.142;14.482;2023-07-28T00:00:48;19.10;99.90
16532;DHT22;66872;63.142;14.482;2023-07-28T00:03:14;19.10;99.90
16532;DHT22;66872;63.142;14.482;2023-07-28T00:05:39;19.10;99.90
16532;DHT22;66872;63.142;14.482;2023-07-28T00:08:05;19.10;99.90
16532;DHT22;66872;63.142;14.482;2023-07-28T00:10:31;19.10;99.90
16532;DHT22;66872;63.142;14.482;2023-07-28T00:12:56;19.10;99.90
16532;DHT22;66872;63.142;14.482;2023-07-28T00:15:22;19.10;99.90
16532;DHT22;66872;63.142;14.482;2023-07-28T00:17:48;19.10;99.90
16532;DHT22;66872;63.142;14.482;2023-07-28T00:20:13;19.00;99.90
16532;DHT22;66872;63.142;14.482;2023-07-28T00:22:39;19.10;99.90
16532;DHT22;66872;63.142;14.482;2023-07-28T00:25:05;19.10;99.90
16532;DHT22;66872;63.142;14.482;2023-07-28T00:27:31;19.10;99.90
16532;DHT22;66872;63.142;14.482;2023-07-28T00:29:56;19.10;99.90
16532;DHT22;66872;63.142;14.482;2023-07-28T00:32:22;19.10;99.90
16532;DHT22;66872;63.142;14.482;2023-07-28T00:34:47;19.00;99.90
16532;DHT22;66872;63.142;14.482;2023-07-28T00:37:13;19.00;99.90
16532;DHT22;66872;63.142;14.482;2023-07-28T00:39:39;19.00;99.90
16532;DHT22;66872;63.142;14.482;2023-07-28T00:42:05;19.00;99.90
16532;DHT22;66872;63.142;14.482;2023-07-28T00:44:30;19.00;99.90
16532;DHT22;66872;63.142;14.482;2023-07-28T00:46:57;19.00;99.90
16532;DHT22;66872;63.142;14.482;2023-07-28T00:49:22;19.00;99.90
16532;DHT22;66872;63.142;14.482;2023-07-28T00:51:49;19.00;99.90
16532;DHT22;66872;63.142;14.482;2023-07-28T00:54:16;19.00;99.90
16532;DHT22;66872;63.142;14.482;2023-07-28T00:56:42;18.90;99.90
16532;DHT22;66872;63.142;14.482;2023-07-28T00:59:08;18.90;99.90
16532;DHT22;66872;63.142;14.482;2023-07-28T01:01:33;18.90;99.90
16532;DHT22;66872;63.142;14.482;2023-07-28T01:03:59;18.90;99.90
16532;DHT22;66872;63.142;14.482;2023-07-28T01:09:09;18.90;99.90
16532;DHT22;66872;63.142;14.482;2023-07-28T01:11:37;18.90;99.90
16532;DHT22;66872;63.142;14.482;2023-07-28T01:14:03;18.90;99.90
16532;DHT22;66872;63.142;14.482;2023-07-28T01:16:28;18.90;99.90
16532;DHT22;66872;63.142;14.482;2023-07-28T01:18:54;18.80;99.90
16532;DHT22;66872;63.142;14.482;2023-07-28T01:21:22;18.80;99.90
16532;DHT22;66872;63.142;14.482;2023-07-28T01:26:36;18.80;99.90
16532;DHT22;66872;63.142;14.482;2023-07-28T01:29:05;18.80;99.90
16532;DHT22;66872;63.142;14.482;2023-07-28T01:31:31;18.80;99.90
16532;DHT22;66872;63.142;14.482;2023-07-28T01:33:57;18.80;99.90
16532;DHT22;66872;63.142;14.482;2023-07-28T01:36:23;18.80;99.90
16532;DHT22;66872;63.142;14.482;2023-07-28T01:38:51;18.80;99.90
16532;DHT22;66872;63.142;14.482;2023-07-28T01:41:17;18.80;99.90
16532;DHT22;66872;63.142;14.482;2023-07-28T01:43:42;18.80;99.90
16532;DHT22;66872;63.142;14.482;2023-07-28T01:46:08;18.70;99.90
16532;DHT22;66872;63.142;14.482;2023-07-28T01:48:34;18.70;99.90
16532;DHT22;66872;63.142;14.482;2023-07-28T01:51:00;18.70;99.90
16532;DHT22;66872;63.142;14.482;2023-07-28T01:53:25;18.70;99.90
16532;DHT22;66872;63.142;14.482;2023-07-28T01:55:51;18.70;99.90
16532;DHT22;66872;63.142;14.482;2023-07-28T01:58:16;18.70;99.90
16532;DHT22;66872;63.142;14.482;2023-07-28T02:00:42;18.70;99.90
16532;DHT22;66872;63.142;14.482;2023-07-28T02:03:08;18.70;99.90
16532;DHT22;66872;63.142;14.482;2023-07-28T02:05:33;18.70;99.90
16532;DHT22;66872;63.142;14.482;2023-07-28T02:07:59;18.70;99.90
16532;DHT22;66872;63.142;14.482;2023-07-28T02:10:26;18.70;99.90
16532;DHT22;66872;63.142;14.482;2023-07-28T02:12:52;18.70;99.90
16532;DHT22;66872;63.142;14.482;2023-07-28T02:15:18;18.70;99.90
16532;DHT22;66872;63.142;14.482;2023-07-28T02:17:44;18.60;99.90
16532;DHT22;66872;63.142;14.482;2023-07-28T02:20:10;18.60;99.90
16532;DHT22;66872;63.142;14.482;2023-07-28T02:22:41;18.60;99.90
16532;DHT22;66872;63.142;14.482;2023-07-28T02:25:07;18.60;99.90
16532;DHT22;66872;63.142;14.482;2023-07-28T02:27:33;18.60;99.90
16532;DHT22;66872;63.142;14.482;2023-07-28T02:29:58;18.60;99.90
16532;DHT22;66872;63.142;14.482;2023-07-28T02:32:25;18.60;99.90
16532;DHT22;66872;63.142;14.482;2023-07-28T02:34:51;18.60;99.90
16532;DHT22;66872;63.142;14.482;2023-07-28T02:37:17;18.60;99.90
16532;DHT22;66872;63.142;14.482;2023-07-28T02:39:43;18.60;99.90
16532;DHT22;66872;63.142;14.482;2023-07-28T02:42:09;18.60;99.90
16532;DHT22;66872;63.142;14.482;2023-07-28T02:44:34;18.60;99.90
16532;DHT22;66872;63.142;14.482;2023-07-28T02:47:00;18.60;99.90
16532;DHT22;66872;63.142;14.482;2023-07-28T02:49:26;18.60;99.90
16532;DHT22;66872;63.142;14.482;2023-07-28T02:51:51;18.60;99.90
16532;DHT22;66872;63.142;14.482;2023-07-28T02:54:17;18.60;99.90
16532;DHT22;66872;63.142;14.482;2023-07-28T02:56:43;18.60;99.90
16532;DHT22;66872;63.142;14.482;2023-07-28T02:59:08;18.50;99.90
16532;DHT22;66872;63.142;14.482;2023-07-28T03:01:34;18.60;99.90
16532;DHT22;66872;63.142;14.482;2023-07-28T03:04:01;18.50;99.90
16532;DHT22;66872;63.142;14.482;2023-07-28T03:06:27;18.60;99.90
16532;DHT22;66872;63.142;14.482;2023-07-28T03:08:53;18.50;99.90
16532;DHT22;66872;63.142;14.482;2023-07-28T03:11:19;18.50;99.90
16532;DHT22;66872;63.142;14.482;2023-07-28T03:13:45;18.60;99.90
16532;DHT22;66872;63.142;14.482;2023-07-28T03:16:11;18.50;99.90
16532;DHT22;66872;63.142;14.482;2023-07-28T03:18:37;18.50;99.90
16532;DHT22;66872;63.142;14.482;2023-07-28T03:21:02;18.60;99.90
16532;DHT22;66872;63.142;14.482;2023-07-28T03:23:28;18.60;99.90
16532;DHT22;66872;63.142;14.482;2023-07-28T03:25:54;18.60;99.90
16532;DHT22;66872;63.142;14.482;2023-07-28T03:28:19;18.50;99.90
16532;DHT22;66872;63.142;14.482;2023-07-28T03:30:45;18.50;99.90
16532;DHT22;66872;63.142;14.482;2023-07-28T03:33:11;18.50;99.90
16532;DHT22;66872;63.142;14.482;2023-07-28T03:35:37;18.50;99.90
16532;DHT22;66872;63.142;14.482;2023-07-28T03:38:02;18.50;99.90
16532;DHT22;66872;63.142;14.482;2023-07-28T03:40:28;18.50;99.90
16532;DHT22;66872;63.142;14.482;2023-07-28T03:42:54;18.50;99.90
16532;DHT22;66872;63.142;14.482;2023-07-28T03:45:20;18.50;99.90
16532;DHT22;66872;63.142;14.482;2023-07-28T03:47:46;18.50;99.90
16532;DHT22;66872;63.142;14.482;2023-07-28T03:50:12;18.50;99.90
16532;DHT22;66872;63.142;14.482;2023-07-28T03:52:37;18.50;99.90
16532;DHT22;66872;63.142;14.482;2023-07-28T03:55:03;18.50;99.90
16532;DHT22;66872;63.142;14.482;2023-07-28T03:57:29;18.50;99.90
16532;DHT22;66872;63.142;14.482;2023-07-28T03:59:55;18.50;99.90
16532;DHT22;66872;63.142;14.482;2023-07-28T04:02:21;18.50;99.90
16532;DHT22;66872;63.142;14.482;2023-07-28T04:04:47;18.50;99.90
16532;DHT22;66872;63.142;14.482;2023-07-28T04:07:18;18.60;99.90
16532;DHT22;66872;63.142;14.482;2023-07-28T04:09:44;18.60;99.90
16532;DHT22;66872;63.142;14.482;2023-07-28T04:12:09;18.60;99.90
16532;DHT22;66872;63.142;14.482;2023-07-28T04:14:35;18.60;99.90
16532;DHT22;66872;63.142;14.482;2023-07-28T04:17:02;18.60;99.90
16532;DHT22;66872;63.142;14.482;2023-07-28T04:19:28;18.60;99.90
16532;DHT22;66872;63.142;14.482;2023-07-28T04:21:56;18.60;99.90
16532;DHT22;66872;63.142;14.482;2023-07-28T04:24:22;18.60;99.90
16532;DHT22;66872;63.142;14.482;2023-07-28T04:26:48;18.60;99.90
16532;DHT22;66872;63.142;14.482;2023-07-28T04:29:16;18.60;99.90
16532;DHT22;66872;63.142;14.482;2023-07-28T04:31:42;18.60;99.90
16532;DHT22;66872;63.142;14.482;2023-07-28T04:34:08;18.70;99.90
16532;DHT22;66872;63.142;14.482;2023-07-28T04:36:34;18.70;99.90
16532;DHT22;66872;63.142;14.482;2023-07-28T04:39:01;18.70;99.90
16532;DHT22;66872;63.142;14.482;2023-07-28T04:41:26;18.70;99.90
16532;DHT22;66872;63.142;14.482;2023-07-28T04:43:52;18.70;99.90
16532;DHT22;66872;63.142;14.482;2023-07-28T04:46:18;18.70;99.90
16532;DHT22;66872;63.142;14.482;2023-07-28T04:48:43;18.80;99.90
16532;DHT22;66872;63.142;14.482;2023-07-28T04:51:09;18.80;99.90
16532;DHT22;66872;63.142;14.482;2023-07-28T04:53:35;18.80;99.90
16532;DHT22;66872;63.142;14.482;2023-07-28T04:56:00;18.80;99.90
16532;DHT22;66872;63.142;14.482;2023-07-28T04:58:26;18.80;99.90
16532;DHT22;66872;63.142;14.482;2023-07-28T05:00:52;18.80;99.90
16532;DHT22;66872;63.142;14.482;2023-07-28T05:03:18;18.80;99.90
16532;DHT22;66872;63.142;14.482;2023-07-28T05:05:44;18.80;99.90
16532;DHT22;66872;63.142;14.482;2023-07-28T05:08:10;18.80;99.90
16532;DHT22;66872;63.142;14.482;2023-07-28T05:10:35;18.80;99.90
16532;DHT22;66872;63.142;14.482;2023-07-28T05:13:01;18.80;99.90
16532;DHT22;66872;63.142;14.482;2023-07-28T05:15:29;18.80;99.90
16532;DHT22;66872;63.142;14.482;2023-07-28T05:17:55;18.80;99.90
16532;DHT22;66872;63.142;14.482;2023-07-28T05:20:21;18.80;99.90
16532;DHT22;66872;63.142;14.482;2023-07-28T05:22:47;18.80;99.90
16532;DHT22;66872;63.142;14.482;2023-07-28T05:25:13;18.80;99.90
16532;DHT22;66872;63.142;14.482;2023-07-28T05:27:39;18.80;99.90
16532;DHT22;66872;63.142;14.482;2023-07-28T05:30:05;18.80;99.90
16532;DHT22;66872;63.142;14.482;2023-07-28T05:32:32;18.80;99.90
16532;DHT22;66872;63.142;14.482;2023-07-28T05:34:57;18.80;99.90
16532;DHT22;66872;63.142;14.482;2023-07-28T05:37:23;18.80;99.90
16532;DHT22;66872;63.142;14.482;2023-07-28T05:39:49;18.80;99.90
16532;DHT22;66872;63.142;14.482;2023-07-28T05:42:15;18.80;99.90
16532;DHT22;66872;63.142;14.482;2023-07-28T05:44:41;18.80;99.90
16532;DHT22;66872;63.142;14.482;2023-07-28T05:47:07;18.80;99.90
16532;DHT22;66872;63.142;14.482;2023-07-28T05:49:33;18.80;99.90
16532;DHT22;66872;63.142;14.482;2023-07-28T05:51:58;18.90;99.90
16532;DHT22;66872;63.142;14.482;2023-07-28T05:54:24;18.90;99.90
16532;DHT22;66872;63.142;14.482;2023-07-28T05:56:49;19.00;99.90
16532;DHT22;66872;63.142;14.482;2023-07-28T05:59:15;19.10;99.90
16532;DHT22;66872;63.142;14.482;2023-07-28T06:01:41;19.10;99.90
16532;DHT22;66872;63.142;14.482;2023-07-28T06:04:07;19.10;99.90
16532;DHT22;66872;63.142;14.482;2023-07-28T06:06:32;19.10;99.90
16532;DHT22;66872;63.142;14.482;2023-07-28T06:08:58;19.10;99.90
16532;DHT22;66872;63.142;14.482;2023-07-28T06:11:24;19.10;99.90
16532;DHT22;66872;63.142;14.482;2023-07-28T06:13:50;19.10;99.90
16532;DHT22;66872;63.142;14.482;2023-07-28T06:16:16;19.10;99.90
16532;DHT22;66872;63.142;14.482;2023-07-28T06:18:42;19.10;99.90
16532;DHT22;66872;63.142;14.482;2023-07-28T06:21:07;19.00;99.90
16532;DHT22;66872;63.142;14.482;2023-07-28T06:23:33;19.00;99.90
16532;DHT22;66872;63.142;14.482;2023-07-28T06:25:59;19.00;99.90
16532;DHT22;66872;63.142;14.482;2023-07-28T06:28:25;19.00;99.90
16532;DHT22;66872;63.142;14.482;2023-07-28T06:30:57;18.90;99.90
16532;DHT22;66872;63.142;14.482;2023-07-28T06:33:28;18.90;99.90
16532;DHT22;66872;63.142;14.482;2023-07-28T06:35:53;18.90;99.90
16532;DHT22;66872;63.142;14.482;2023-07-28T06:38:19;18.90;99.90
16532;DHT22;66872;63.142;14.482;2023-07-28T06:40:45;18.90;99.90
16532;DHT22;66872;63.142;14.482;2023-07-28T06:43:11;18.90;99.90
16532;DHT22;66872;63.142;14.482;2023-07-28T06:45:36;18.90;99.90
16532;DHT22;66872;63.142;14.482;2023-07-28T06:48:02;18.90;99.90
16532;DHT22;66872;63.142;14.482;2023-07-28T06:50:28;18.90;99.90
16532;DHT22;66872;63.142;14.482;2023-07-28T06:52:54;18.90;99.90
16532;DHT22;66872;63.142;14.482;2023-07-28T06:55:20;19.00;99.90
16532;DHT22;66872;63.142;14.482;2023-07-28T06:57:47;19.00;99.90
16532;DHT22;66872;63.142;14.482;2023-07-28T07:00:13;19.00;99.90
16532;DHT22;66872;63.142;14.482;2023-07-28T07:02:40;19.10;99.90
16532;DHT22;66872;63.142;14.482;2023-07-28T07:05:06;19.00;99.90
16532;DHT22;66872;63.142;14.482;2023-07-28T07:07:32;19.00;99.90
16532;DHT22;66872;63.142;14.482;2023-07-28T07:09:58;19.10;99.90
16532;DHT22;66872;63.142;14.482;2023-07-28T07:12:25;19.10;99.90
16532;DHT22;66872;63.142;14.482;2023-07-28T07:14:52;19.10;99.90
16532;DHT22;66872;63.142;14.482;2023-07-28T07:17:18;19.10;99.90
16532;DHT22;66872;63.142;14.482;2023-07-28T07:19:44;19.10;99.90
16532;DHT22;66872;63.142;14.482;2023-07-28T07:22:09;19.10;99.90
16532;DHT22;66872;63.142;14.482;2023-07-28T07:24:35;19.10;99.90
16532;DHT22;66872;63.142;14.482;2023-07-28T07:27:01;19.10;99.90
16532;DHT22;66872;63.142;14.482;2023-07-28T07:29:26;19.20;99.90
16532;DHT22;66872;63.142;14.482;2023-07-28T07:31:52;19.20;99.90
16532;DHT22;66872;63.142;14.482;2023-07-28T07:34:22;19.30;99.90
16532;DHT22;66872;63.142;14.482;2023-07-28T07:36:49;19.40;99.90
16532;DHT22;66872;63.142;14.482;2023-07-28T07:39:14;19.50;99.90
16532;DHT22;66872;63.142;14.482;2023-07-28T07:41:40;19.60;99.90
16532;DHT22;66872;63.142;14.482;2023-07-28T07:44:06;19.70;99.90
16532;DHT22;66872;63.142;14.482;2023-07-28T07:46:32;19.80;99.90
16532;DHT22;66872;63.142;14.482;2023-07-28T07:48:58;19.90;99.90
16532;DHT22;66872;63.142;14.482;2023-07-28T07:51:23;20.10;99.90
16532;DHT22;66872;63.142;14.482;2023-07-28T07:53:49;20.20;99.90
16532;DHT22;66872;63.142;14.482;2023-07-28T07:56:15;20.40;99.90
16532;DHT22;66872;63.142;14.482;2023-07-28T07:58:43;20.50;99.90
16532;DHT22;66872;63.142;14.482;2023-07-28T08:01:09;20.60;99.90
16532;DHT22;66872;63.142;14.482;2023-07-28T08:03:35;20.60;99.90
16532;DHT22;66872;63.142;14.482;2023-07-28T08:06:09;20.60;99.90
16532;DHT22;66872;63.142;14.482;2023-07-28T08:08:37;20.70;99.90
16532;DHT22;66872;63.142;14.482;2023-07-28T08:11:02;20.80;99.90
16532;DHT22;66872;63.142;14.482;2023-07-28T08:13:28;20.80;99.90
16532;DHT22;66872;63.142;14.482;2023-07-28T08:15:54;20.80;99.90
16532;DHT22;66872;63.142;14.482;2023-07-28T08:18:20;20.80;99.90
16532;DHT22;66872;63.142;14.482;2023-07-28T08:20:45;20.80;99.90
16532;DHT22;66872;63.142;14.482;2023-07-28T08:23:11;20.90;99.90
16532;DHT22;66872;63.142;14.482;2023-07-28T08:25:37;21.00;1.00
16532;DHT22;66872;63.142;14.482;2023-07-28T08:28:03;21.10;99.90
16532;DHT22;66872;63.142;14.482;2023-07-28T08:30:28;21.10;99.90
16532;DHT22;66872;63.142;14.482;2023-07-28T08:32:54;21.20;1.00
16532;DHT22;66872;63.142;14.482;2023-07-28T08:35:20;21.30;1.00
16532;DHT22;66872;63.142;14.482;2023-07-28T08:37:45;21.30;99.90
16532;DHT22;66872;63.142;14.482;2023-07-28T08:40:11;21.40;99.90
16532;DHT22;66872;63.142;14.482;2023-07-28T08:42:39;21.40;99.90
16532;DHT22;66872;63.142;14.482;2023-07-28T08:45:06;21.50;99.90
16532;DHT22;66872;63.142;14.482;2023-07-28T08:47:33;21.50;99.90
16532;DHT22;66872;63.142;14.482;2023-07-28T08:50:00;21.50;99.90
16532;DHT22;66872;63.142;14.482;2023-07-28T08:52:25;21.60;99.90
16532;DHT22;66872;63.142;14.482;2023-07-28T08:54:51;21.60;99.90
16532;DHT22;66872;63.142;14.482;2023-07-28T08:57:17;21.60;99.90
16532;DHT22;66872;63.142;14.482;2023-07-28T08:59:45;21.60;99.90
16532;DHT22;66872;63.142;14.482;2023-07-28T09:02:15;21.70;99.90
16532;DHT22;66872;63.142;14.482;2023-07-28T09:04:43;21.70;99.90
16532;DHT22;66872;63.142;14.482;2023-07-28T09:07:08;21.60;99.90
16532;DHT22;66872;63.142;14.482;2023-07-28T09:09:35;21.60;99.90
16532;DHT22;66872;63.142;14.482;2023-07-28T09:12:03;21.60;99.90
16532;DHT22;66872;63.142;14.482;2023-07-28T09:14:29;21.60;99.90
16532;DHT22;66872;63.142;14.482;2023-07-28T09:16:55;21.50;99.90
16532;DHT22;66872;63.142;14.482;2023-07-28T09:19:21;21.50;99.90
16532;DHT22;66872;63.142;14.482;2023-07-28T09:21:58;21.50;99.90
16532;DHT22;66872;63.142;14.482;2023-07-28T09:24:33;21.50;99.90
16532;DHT22;66872;63.142;14.482;2023-07-28T09:27:03;21.50;99.90
16532;DHT22;66872;63.142;14.482;2023-07-28T09:29:29;21.40;99.90
16532;DHT22;66872;63.142;14.482;2023-07-28T09:32:04;21.40;99.90
16532;DHT22;66872;63.142;14.482;2023-07-28T09:34:30;21.40;99.90
16532;DHT22;66872;63.142;14.482;2023-07-28T09:37:17;21.40;99.90
16532;DHT22;66872;63.142;14.482;2023-07-28T09:39:43;21.40;99.90
16532;DHT22;66872;63.142;14.482;2023-07-28T09:42:09;21.40;99.90
16532;DHT22;66872;63.142;14.482;2023-07-28T09:44:35;21.40;99.90
16532;DHT22;66872;63.142;14.482;2023-07-28T09:47:02;21.40;99.90
16532;DHT22;66872;63.142;14.482;2023-07-28T09:49:33;21.40;99.90
16532;DHT22;66872;63.142;14.482;2023-07-28T09:52:05;21.40;99.90
16532;DHT22;66872;63.142;14.482;2023-07-28T09:54:41;21.40;99.90
16532;DHT22;66872;63.142;14.482;2023-07-28T09:57:13;21.40;99.90
16532;DHT22;66872;63.142;14.482;2023-07-28T09:59:41;21.30;99.90
16532;DHT22;66872;63.142;14.482;2023-07-28T10:02:08;21.30;99.90
16532;DHT22;66872;63.142;14.482;2023-07-28T10:04:34;21.30;99.90
16532;DHT22;66872;63.142;14.482;2023-07-28T10:07:02;21.30;99.90
16532;DHT22;66872;63.142;14.482;2023-07-28T10:09:30;21.30;99.90
16532;DHT22;66872;63.142;14.482;2023-07-28T10:12:03;21.30;99.90
16532;DHT22;66872;63.142;14.482;2023-07-28T10:14:37;21.30;99.90
16532;DHT22;66872;63.142;14.482;2023-07-28T10:17:05;21.20;99.90
16532;DHT22;66872;63.142;14.482;2023-07-28T10:19:42;21.20;99.90
16532;DHT22;66872;63.142;14.482;2023-07-28T10:22:11;21.20;99.90
16532;DHT22;66872;63.142;14.482;2023-07-28T10:24:58;21.10;99.90
16532;DHT22;66872;63.142;14.482;2023-07-28T10:27:37;21.00;99.90
16532;DHT22;66872;63.142;14.482;2023-07-28T10:30:08;21.00;99.90
16532;DHT22;66872;63.142;14.482;2023-07-28T10:32:40;20.90;99.90
16532;DHT22;66872;63.142;14.482;2023-07-28T10:35:08;20.90;99.90
16532;DHT22;66872;63.142;14.482;2023-07-28T10:37:38;20.90;99.90
16532;DHT22;66872;63.142;14.482;2023-07-28T10:42:49;21.00;99.90
16532;DHT22;66872;63.142;14.482;2023-07-28T10:45:23;20.90;99.90
16532;DHT22;66872;63.142;14.482;2023-07-28T10:47:49;20.90;99.90
16532;DHT22;66872;63.142;14.482;2023-07-28T10:50:18;20.90;99.90
16532;DHT22;66872;63.142;14.482;2023-07-28T10:52:53;20.90;99.90
16532;DHT22;66872;63.142;14.482;2023-07-28T10:55:29;20.90;99.90
16532;DHT22;66872;63.142;14.482;2023-07-28T10:57:56;20.90;99.90
16532;DHT22;66872;63.142;14.482;2023-07-28T11:00:23;20.80;99.90
16532;DHT22;66872;63.142;14.482;2023-07-28T11:02:51;20.80;99.90
16532;DHT22;66872;63.142;14.482;2023-07-28T11:05:24;20.80;99.90
16532;DHT22;66872;63.142;14.482;2023-07-28T11:07:54;20.80;99.90
16532;DHT22;66872;63.142;14.482;2023-07-28T11:10:22;20.80;99.90
16532;DHT22;66872;63.142;14.482;2023-07-28T11:12:57;20.70;99.90
16532;DHT22;66872;63.142;14.482;2023-07-28T11:15:25;20.70;99.90
16532;DHT22;66872;63.142;14.482;2023-07-28T11:17:52;20.70;99.90
16532;DHT22;66872;63.142;14.482;2023-07-28T11:20:36;20.70;99.90
16532;DHT22;66872;63.142;14.482;2023-07-28T11:23:03;20.60;99.90
16532;DHT22;66872;63.142;14.482;2023-07-28T11:25:30;20.60;99.90
16532;DHT22;66872;63.142;14.482;2023-07-28T11:27:57;20.60;99.90
16532;DHT22;66872;63.142;14.482;2023-07-28T11:30:23;20.60;99.90
16532;DHT22;66872;63.142;14.482;2023-07-28T11:32:51;20.60;99.90
16532;DHT22;66872;63.142;14.482;2023-07-28T11:35:18;20.60;99.90
16532;DHT22;66872;63.142;14.482;2023-07-28T11:37:46;20.60;99.90
16532;DHT22;66872;63.142;14.482;2023-07-28T11:40:15;20.60;99.90
16532;DHT22;66872;63.142;14.482;2023-07-28T11:42:53;20.60;99.90
16532;DHT22;66872;63.142;14.482;2023-07-28T11:45:20;20.70;99.90
16532;DHT22;66872;63.142;14.482;2023-07-28T11:48:02;20.70;99.90
16532;DHT22;66872;63.142;14.482;2023-07-28T11:50:34;20.70;99.90
16532;DHT22;66872;63.142;14.482;2023-07-28T11:53:00;20.70;99.90
16532;DHT22;66872;63.142;14.482;2023-07-28T11:55:26;20.70;99.90
16532;DHT22;66872;63.142;14.482;2023-07-28T11:57:53;20.70;99.90
16532;DHT22;66872;63.142;14.482;2023-07-28T12:00:24;20.70;99.90
16532;DHT22;66872;63.142;14.482;2023-07-28T12:03:04;20.80;99.90
16532;DHT22;66872;63.142;14.482;2023-07-28T12:05:31;20.80;99.90
16532;DHT22;66872;63.142;14.482;2023-07-28T12:07:56;20.80;99.90
16532;DHT22;66872;63.142;14.482;2023-07-28T12:10:22;20.80;99.90
16532;DHT22;66872;63.142;14.482;2023-07-28T12:12:49;20.70;99.90
16532;DHT22;66872;63.142;14.482;2023-07-28T12:15:23;20.70;99.90
16532;DHT22;66872;63.142;14.482;2023-07-28T12:18:13;20.70;99.90
16532;DHT22;66872;63.142;14.482;2023-07-28T12:20:41;20.60;99.90
16532;DHT22;66872;63.142;14.482;2023-07-28T12:23:08;20.50;99.90
16532;DHT22;66872;63.142;14.482;2023-07-28T12:25:35;20.50;99.90
16532;DHT22;66872;63.142;14.482;2023-07-28T12:28:02;20.50;99.90
16532;DHT22;66872;63.142;14.482;2023-07-28T12:30:27;20.40;99.90
16532;DHT22;66872;63.142;14.482;2023-07-28T12:32:54;20.40;99.90
16532;DHT22;66872;63.142;14.482;2023-07-28T12:35:20;20.40;99.90
16532;DHT22;66872;63.142;14.482;2023-07-28T12:37:52;20.40;99.90
16532;DHT22;66872;63.142;14.482;2023-07-28T12:40:18;20.40;99.90
16532;DHT22;66872;63.142;14.482;2023-07-28T12:42:47;20.50;99.90
16532;DHT22;66872;63.142;14.482;2023-07-28T12:45:14;20.50;99.90
16532;DHT22;66872;63.142;14.482;2023-07-28T12:47:41;20.50;99.90
16532;DHT22;66872;63.142;14.482;2023-07-28T12:50:07;20.50;99.90
16532;DHT22;66872;63.142;14.482;2023-07-28T12:52:33;20.50;99.90
16532;DHT22;66872;63.142;14.482;2023-07-28T12:54:59;20.50;99.90
16532;DHT22;66872;63.142;14.482;2023-07-28T12:57:24;20.50;99.90
16532;DHT22;66872;63.142;14.482;2023-07-28T12:59:50;20.50;99.90
16532;DHT22;66872;63.142;14.482;2023-07-28T13:02:17;20.50;99.90
16532;DHT22;66872;63.142;14.482;2023-07-28T13:04:43;20.50;99.90
16532;DHT22;66872;63.142;14.482;2023-07-28T13:07:09;20.50;99.90
16532;DHT22;66872;63.142;14.482;2023-07-28T13:09:35;20.50;99.90
16532;DHT22;66872;63.142;14.482;2023-07-28T13:12:00;20.50;99.90
16532;DHT22;66872;63.142;14.482;2023-07-28T13:14:26;20.50;99.90
16532;DHT22;66872;63.142;14.482;2023-07-28T13:16:52;20.50;99.90
16532;DHT22;66872;63.142;14.482;2023-07-28T13:19:17;20.50;99.90
16532;DHT22;66872;63.142;14.482;2023-07-28T13:21:43;20.50;99.90
16532;DHT22;66872;63.142;14.482;2023-07-28T13:24:09;20.50;99.90
16532;DHT22;66872;63.142;14.482;2023-07-28T13:26:34;20.50;99.90
16532;DHT22;66872;63.142;14.482;2023-07-28T13:29:01;20.50;99.90
16532;DHT22;66872;63.142;14.482;2023-07-28T13:31:28;20.40;99.90
16532;DHT22;66872;63.142;14.482;2023-07-28T13:33:54;20.40;99.90
16532;DHT22;66872;63.142;14.482;2023-07-28T13:36:19;20.40;99.90
16532;DHT22;66872;63.142;14.482;2023-07-28T13:38:45;20.40;99.90
16532;DHT22;66872;63.142;14.482;2023-07-28T13:41:11;20.40;99.90
16532;DHT22;66872;63.142;14.482;2023-07-28T13:43:37;20.40;99.90
16532;DHT22;66872;63.142;14.482;2023-07-28T13:46:06;20.40;99.90
16532;DHT22;66872;63.142;14.482;2023-07-28T13:48:32;20.40;99.90
16532;DHT22;66872;63.142;14.482;2023-07-28T13:50:59;20.40;99.90
16532;DHT22;66872;63.142;14.482;2023-07-28T13:53:25;20.40;99.90
16532;DHT22;66872;63.142;14.482;2023-07-28T13:55:51;20.40;99.90
16532;DHT22;66872;63.142;14.482;2023-07-28T13:58:17;20.40;99.90
16532;DHT22;66872;63.142;14.482;2023-07-28T14:00:43;20.40;99.90
16532;DHT22;66872;63.142;14.482;2023-07-28T14:03:09;20.40;99.90
16532;DHT22;66872;63.142;14.482;2023-07-28T14:05:35;20.40;99.90
16532;DHT22;66872;63.142;14.482;2023-07-28T14:08:01;20.40;99.90
16532;DHT22;66872;63.142;14.482;2023-07-28T14:10:27;20.40;99.90
16532;DHT22;66872;63.142;14.482;2023-07-28T14:12:53;20.40;99.90
16532;DHT22;66872;63.142;14.482;2023-07-28T14:15:18;20.40;99.90
16532;DHT22;66872;63.142;14.482;2023-07-28T14:17:44;20.40;99.90
16532;DHT22;66872;63.142;14.482;2023-07-28T14:20:10;20.40;99.90
16532;DHT22;66872;63.142;14.482;2023-07-28T14:22:37;20.40;99.90
16532;DHT22;66872;63.142;14.482;2023-07-28T14:25:03;20.40;99.90
16532;DHT22;66872;63.142;14.482;2023-07-28T14:27:29;20.40;99.90
16532;DHT22;66872;63.142;14.482;2023-07-28T14:29:55;20.30;99.90
16532;DHT22;66872;63.142;14.482;2023-07-28T14:32:21;20.40;99.90
16532;DHT22;66872;63.142;14.482;2023-07-28T14:34:47;20.40;99.90
16532;DHT22;66872;63.142;14.482;2023-07-28T14:37:13;20.40;99.90
16532;DHT22;66872;63.142;14.482;2023-07-28T14:39:39;20.40;99.90
16532;DHT22;66872;63.142;14.482;2023-07-28T14:42:05;20.40;99.90
16532;DHT22;66872;63.142;14.482;2023-07-28T14:44:30;20.40;99.90
16532;DHT22;66872;63.142;14.482;2023-07-28T14:46:56;20.40;99.90
16532;DHT22;66872;63.142;14.482;2023-07-28T14:49:22;20.40;99.90
16532;DHT22;66872;63.142;14.482;2023-07-28T14:51:48;20.40;99.90
16532;DHT22;66872;63.142;14.482;2023-07-28T14:54:14;20.40;99.90
16532;DHT22;66872;63.142;14.482;2023-07-28T14:56:39;20.40;99.90
16532;DHT22;66872;63.142;14.482;2023-07-28T14:59:05;20.40;99.90
16532;DHT22;66872;63.142;14.482;2023-07-28T15:01:31;20.40;99.90
16532;DHT22;66872;63.142;14.482;2023-07-28T15:03:58;20.40;99.90
16532;DHT22;66872;63.142;14.482;2023-07-28T15:06:24;20.40;99.90
16532;DHT22;66872;63.142;14.482;2023-07-28T15:08:50;20.40;99.90
16532;DHT22;66872;63.142;14.482;2023-07-28T15:11:16;20.40;99.90
16532;DHT22;66872;63.142;14.482;2023-07-28T15:13:43;20.40;99.90
16532;DHT22;66872;63.142;14.482;2023-07-28T15:16:10;20.40;99.90
16532;DHT22;66872;63.142;14.482;2023-07-28T15:18:36;20.40;99.90
16532;DHT22;66872;63.142;14.482;2023-07-28T15:21:02;20.40;99.90